sensor_id;sensor_type;location;lat;lon;timestamp;pressure;altitude;pressure_sealevel;temperature;humidity
64230;BME280;50547;49.498;0.092;2023-03-25T00:01:13;1004.41;;;10.08;82.13
64230;BME280;50547;49.498;0.092;2023-03-25T00:03:44;1004.54;;;10.05;82.49
64230;BME280;50547;49.498;0.092;2023-03-25T00:06:15;1004.37;;;10.04;83.48
64230;BME280;50547;49.498;0.092;2023-03-25T00:08:44;1004.50;;;9.98;83.62
64230;BME280;50547;49.498;0.092;2023-03-25T00:11:13;1004.50;;;9.99;83.64
64230;BME280;50547;49.498;0.092;2023-03-25T00:13:42;1004.48;;;10.04;83.67
64230;BME280;50547;49.498;0.092;2023-03-25T00:16:12;1004.48;;;10.05;83.41
64230;BME280;50547;49.498;0.092;2023-03-25T00:18:41;1004.60;;;10.12;83.48
64230;BME280;50547;49.498;0.092;2023-03-25T00:21:10;1004.58;;;10.13;83.23
64230;BME280;50547;49.498;0.092;2023-03-25T00:23:40;1004.68;;;10.15;83.14
64230;BME280;50547;49.498;0.092;2023-03-25T00:26:09;1004.50;;;10.20;82.94
64230;BME280;50547;49.498;0.092;2023-03-25T00:28:38;1004.62;;;10.29;82.76
64230;BME280;50547;49.498;0.092;2023-03-25T00:31:11;1004.64;;;10.35;82.60
64230;BME280;50547;49.498;0.092;2023-03-25T00:33:41;1004.66;;;10.32;82.65
64230;BME280;50547;49.498;0.092;2023-03-25T00:36:11;1004.62;;;10.37;82.55
64230;BME280;50547;49.498;0.092;2023-03-25T00:38:40;1004.60;;;10.37;82.48
64230;BME280;50547;49.498;0.092;2023-03-25T00:41:11;1004.64;;;10.36;82.25
64230;BME280;50547;49.498;0.092;2023-03-25T00:43:40;1004.52;;;10.36;82.65
64230;BME280;50547;49.498;0.092;2023-03-25T00:46:10;1004.50;;;10.45;82.37
64230;BME280;50547;49.498;0.092;2023-03-25T00:48:39;1004.56;;;10.54;82.21
64230;BME280;50547;49.498;0.092;2023-03-25T00:51:08;1004.50;;;10.59;81.69
64230;BME280;50547;49.498;0.092;2023-03-25T00:53:38;1004.47;;;10.64;81.51
64230;BME280;50547;49.498;0.092;2023-03-25T00:56:07;1004.56;;;10.61;81.57
64230;BME280;50547;49.498;0.092;2023-03-25T00:58:36;1004.47;;;10.66;81.37
64230;BME280;50547;49.498;0.092;2023-03-25T01:01:08;1004.41;;;10.65;81.64
64230;BME280;50547;49.498;0.092;2023-03-25T01:03:37;1004.54;;;10.66;81.68
64230;BME280;50547;49.498;0.092;2023-03-25T01:06:09;1004.60;;;10.60;81.60
64230;BME280;50547;49.498;0.092;2023-03-25T01:08:39;1004.52;;;10.62;81.71
64230;BME280;50547;49.498;0.092;2023-03-25T01:11:16;1004.47;;;10.59;81.38
64230;BME280;50547;49.498;0.092;2023-03-25T01:13:46;1004.54;;;10.58;81.08
64230;BME280;50547;49.498;0.092;2023-03-25T01:16:16;1004.43;;;10.66;81.09
64230;BME280;50547;49.498;0.092;2023-03-25T01:18:45;1004.48;;;10.55;81.54
64230;BME280;50547;49.498;0.092;2023-03-25T01:21:15;1004.43;;;10.44;80.93
64230;BME280;50547;49.498;0.092;2023-03-25T01:23:44;1004.39;;;10.40;81.16
64230;BME280;50547;49.498;0.092;2023-03-25T01:26:13;1004.48;;;10.42;81.56
64230;BME280;50547;49.498;0.092;2023-03-25T01:28:44;1004.37;;;10.46;82.00
64230;BME280;50547;49.498;0.092;2023-03-25T01:31:13;1004.39;;;10.41;82.90
64230;BME280;50547;49.498;0.092;2023-03-25T01:33:43;1004.23;;;10.50;82.75
64230;BME280;50547;49.498;0.092;2023-03-25T01:36:12;1004.29;;;10.53;82.68
64230;BME280;50547;49.498;0.092;2023-03-25T01:38:41;1003.59;;;10.54;82.17
64230;BME280;50547;49.498;0.092;2023-03-25T01:41:10;1004.31;;;10.43;82.05
64230;BME280;50547;49.498;0.092;2023-03-25T01:43:39;1004.37;;;10.38;81.73
64230;BME280;50547;49.498;0.092;2023-03-25T01:46:11;1004.29;;;10.43;81.46
64230;BME280;50547;49.498;0.092;2023-03-25T01:48:41;1004.25;;;10.46;81.95
64230;BME280;50547;49.498;0.092;2023-03-25T01:51:14;1004.11;;;10.50;82.49
64230;BME280;50547;49.498;0.092;2023-03-25T01:53:45;1004.13;;;10.37;83.85
64230;BME280;50547;49.498;0.092;2023-03-25T01:56:18;1004.19;;;10.33;85.75
64230;BME280;50547;49.498;0.092;2023-03-25T01:58:48;1004.17;;;10.15;86.96
64230;BME280;50547;49.498;0.092;2023-03-25T02:01:20;1004.31;;;10.15;87.11
64230;BME280;50547;49.498;0.092;2023-03-25T02:03:50;1004.02;;;10.05;87.48
64230;BME280;50547;49.498;0.092;2023-03-25T02:06:23;1004.27;;;10.02;87.87
64230;BME280;50547;49.498;0.092;2023-03-25T02:08:57;1003.61;;;10.01;86.26
64230;BME280;50547;49.498;0.092;2023-03-25T02:11:26;1004.45;;;9.99;85.58
64230;BME280;50547;49.498;0.092;2023-03-25T02:13:58;1004.29;;;9.95;85.13
64230;BME280;50547;49.498;0.092;2023-03-25T02:16:35;1004.23;;;9.89;85.08
64230;BME280;50547;49.498;0.092;2023-03-25T02:19:27;1004.25;;;9.96;85.30
64230;BME280;50547;49.498;0.092;2023-03-25T02:22:22;1004.58;;;9.95;84.37
64230;BME280;50547;49.498;0.092;2023-03-25T02:25:19;1004.50;;;9.99;84.08
64230;BME280;50547;49.498;0.092;2023-03-25T02:27:58;1004.54;;;10.01;83.63
64230;BME280;50547;49.498;0.092;2023-03-25T02:30:40;1004.56;;;9.99;83.66
64230;BME280;50547;49.498;0.092;2023-03-25T02:38:04;1004.56;;;10.07;83.49
64230;BME280;50547;49.498;0.092;2023-03-25T02:40:37;1004.62;;;10.04;83.48
64230;BME280;50547;49.498;0.092;2023-03-25T02:43:10;1004.39;;;9.98;82.98
64230;BME280;50547;49.498;0.092;2023-03-25T02:45:43;1004.60;;;10.04;82.91
64230;BME280;50547;49.498;0.092;2023-03-25T02:48:18;1004.66;;;10.19;83.17
64230;BME280;50547;49.498;0.092;2023-03-25T02:50:51;1004.50;;;10.21;83.56
64230;BME280;50547;49.498;0.092;2023-03-25T02:53:26;1004.48;;;9.98;84.23
64230;BME280;50547;49.498;0.092;2023-03-25T02:55:56;1004.58;;;9.92;84.71
64230;BME280;50547;49.498;0.092;2023-03-25T02:58:28;1004.64;;;9.95;84.48
64230;BME280;50547;49.498;0.092;2023-03-25T03:00:58;1004.70;;;9.96;84.31
64230;BME280;50547;49.498;0.092;2023-03-25T03:03:27;1004.70;;;9.97;84.53
64230;BME280;50547;49.498;0.092;2023-03-25T03:06:00;1004.72;;;9.92;84.70
64230;BME280;50547;49.498;0.092;2023-03-25T03:08:40;1004.72;;;9.97;84.17
64230;BME280;50547;49.498;0.092;2023-03-25T03:11:16;1004.56;;;10.07;83.74
64230;BME280;50547;49.498;0.092;2023-03-25T03:14:17;1004.52;;;10.01;84.05
64230;BME280;50547;49.498;0.092;2023-03-25T03:16:57;1004.66;;;10.07;83.75
64230;BME280;50547;49.498;0.092;2023-03-25T03:19:35;1004.76;;;10.13;83.67
64230;BME280;50547;49.498;0.092;2023-03-25T03:22:15;1004.74;;;10.13;84.00
64230;BME280;50547;49.498;0.092;2023-03-25T03:24:50;1004.94;;;10.13;84.29
64230;BME280;50547;49.498;0.092;2023-03-25T03:27:27;1005.03;;;10.03;84.98
64230;BME280;50547;49.498;0.092;2023-03-25T03:30:03;1004.99;;;10.07;84.82
64230;BME280;50547;49.498;0.092;2023-03-25T03:32:39;1004.96;;;10.05;84.90
64230;BME280;50547;49.498;0.092;2023-03-25T03:35:14;1005.13;;;10.10;84.93
64230;BME280;50547;49.498;0.092;2023-03-25T03:37:49;1005.11;;;10.12;84.84
64230;BME280;50547;49.498;0.092;2023-03-25T03:40:22;1005.15;;;10.09;84.73
64230;BME280;50547;49.498;0.092;2023-03-25T03:42:55;1005.17;;;10.16;84.42
64230;BME280;50547;49.498;0.092;2023-03-25T03:45:29;1005.01;;;10.23;83.72
64230;BME280;50547;49.498;0.092;2023-03-25T03:48:05;1005.29;;;10.29;83.73
64230;BME280;50547;49.498;0.092;2023-03-25T03:50:40;1005.23;;;10.37;83.42
64230;BME280;50547;49.498;0.092;2023-03-25T03:53:14;1005.33;;;10.25;84.24
64230;BME280;50547;49.498;0.092;2023-03-25T03:55:49;1005.53;;;10.25;84.51
64230;BME280;50547;49.498;0.092;2023-03-25T03:58:20;1005.23;;;10.19;84.28
64230;BME280;50547;49.498;0.092;2023-03-25T04:00:53;1005.25;;;10.10;84.61
64230;BME280;50547;49.498;0.092;2023-03-25T04:03:30;1005.25;;;10.13;83.43
64230;BME280;50547;49.498;0.092;2023-03-25T04:06:01;1005.41;;;10.05;84.18
64230;BME280;50547;49.498;0.092;2023-03-25T04:08:37;1005.49;;;10.08;83.70
64230;BME280;50547;49.498;0.092;2023-03-25T04:11:09;1005.29;;;10.03;83.85
64230;BME280;50547;49.498;0.092;2023-03-25T04:13:42;1005.05;;;10.08;83.64
64230;BME280;50547;49.498;0.092;2023-03-25T04:16:13;1005.49;;;10.06;83.81
64230;BME280;50547;49.498;0.092;2023-03-25T04:18:42;1005.53;;;9.99;84.21
64230;BME280;50547;49.498;0.092;2023-03-25T04:21:11;1005.57;;;10.04;83.90
64230;BME280;50547;49.498;0.092;2023-03-25T04:23:41;1005.41;;;10.00;83.86
64230;BME280;50547;49.498;0.092;2023-03-25T04:26:10;1005.37;;;10.07;83.53
64230;BME280;50547;49.498;0.092;2023-03-25T04:28:40;1005.51;;;9.99;84.09
64230;BME280;50547;49.498;0.092;2023-03-25T04:31:12;1005.61;;;9.95;84.25
64230;BME280;50547;49.498;0.092;2023-03-25T04:33:42;1005.65;;;9.92;84.51
64230;BME280;50547;49.498;0.092;2023-03-25T04:36:12;1005.73;;;9.92;84.43
64230;BME280;50547;49.498;0.092;2023-03-25T04:38:41;1005.77;;;9.92;84.34
64230;BME280;50547;49.498;0.092;2023-03-25T04:41:11;1005.63;;;9.92;84.42
64230;BME280;50547;49.498;0.092;2023-03-25T04:43:40;1005.65;;;9.79;84.86
64230;BME280;50547;49.498;0.092;2023-03-25T04:46:12;1005.57;;;9.87;84.63
64230;BME280;50547;49.498;0.092;2023-03-25T04:48:42;1005.57;;;9.82;84.59
64230;BME280;50547;49.498;0.092;2023-03-25T04:51:13;1005.63;;;9.81;84.87
64230;BME280;50547;49.498;0.092;2023-03-25T04:53:42;1005.65;;;9.87;84.55
64230;BME280;50547;49.498;0.092;2023-03-25T04:56:15;1005.77;;;9.87;84.66
64230;BME280;50547;49.498;0.092;2023-03-25T04:58:44;1005.73;;;9.88;84.81
64230;BME280;50547;49.498;0.092;2023-03-25T05:01:19;1005.84;;;9.88;84.60
64230;BME280;50547;49.498;0.092;2023-03-25T05:03:50;1005.84;;;9.87;84.82
64230;BME280;50547;49.498;0.092;2023-03-25T05:06:19;1006.02;;;9.86;84.98
64230;BME280;50547;49.498;0.092;2023-03-25T05:08:48;1005.86;;;9.82;85.23
64230;BME280;50547;49.498;0.092;2023-03-25T05:11:18;1006.12;;;9.87;84.93
64230;BME280;50547;49.498;0.092;2023-03-25T05:13:47;1006.14;;;9.86;84.80
64230;BME280;50547;49.498;0.092;2023-03-25T05:16:16;1006.16;;;9.90;84.86
64230;BME280;50547;49.498;0.092;2023-03-25T05:18:45;1006.10;;;9.92;84.81
64230;BME280;50547;49.498;0.092;2023-03-25T05:21:14;1006.08;;;9.79;85.50
64230;BME280;50547;49.498;0.092;2023-03-25T05:23:44;1006.20;;;9.91;85.21
64230;BME280;50547;49.498;0.092;2023-03-25T05:26:13;1006.20;;;9.94;85.08
64230;BME280;50547;49.498;0.092;2023-03-25T05:28:42;1006.26;;;9.85;85.43
64230;BME280;50547;49.498;0.092;2023-03-25T05:31:11;1006.20;;;9.90;85.37
64230;BME280;50547;49.498;0.092;2023-03-25T05:33:41;1006.08;;;9.87;85.67
64230;BME280;50547;49.498;0.092;2023-03-25T05:36:11;1006.16;;;10.04;84.96
64230;BME280;50547;49.498;0.092;2023-03-25T05:38:41;1006.24;;;9.90;85.85
64230;BME280;50547;49.498;0.092;2023-03-25T05:41:11;1006.10;;;9.90;85.82
64230;BME280;50547;49.498;0.092;2023-03-25T05:43:41;1006.16;;;9.89;85.96
64230;BME280;50547;49.498;0.092;2023-03-25T05:46:10;1006.24;;;9.93;85.65
64230;BME280;50547;49.498;0.092;2023-03-25T05:48:39;1006.33;;;9.94;85.18
64230;BME280;50547;49.498;0.092;2023-03-25T05:51:11;1006.37;;;9.99;85.35
64230;BME280;50547;49.498;0.092;2023-03-25T05:53:41;1006.49;;;10.04;85.41
64230;BME280;50547;49.498;0.092;2023-03-25T05:56:11;1006.53;;;10.02;85.60
64230;BME280;50547;49.498;0.092;2023-03-25T05:58:40;1006.39;;;10.00;85.70
64230;BME280;50547;49.498;0.092;2023-03-25T06:01:10;1006.51;;;9.99;85.47
64230;BME280;50547;49.498;0.092;2023-03-25T06:03:39;1006.35;;;9.99;85.32
64230;BME280;50547;49.498;0.092;2023-03-25T06:06:09;1006.51;;;9.99;85.32
64230;BME280;50547;49.498;0.092;2023-03-25T06:08:39;1006.57;;;10.06;85.13
64230;BME280;50547;49.498;0.092;2023-03-25T06:11:08;1006.61;;;10.05;85.13
64230;BME280;50547;49.498;0.092;2023-03-25T06:13:38;1006.69;;;10.07;85.22
64230;BME280;50547;49.498;0.092;2023-03-25T06:16:07;1006.63;;;10.14;85.03
64230;BME280;50547;49.498;0.092;2023-03-25T06:18:37;1006.69;;;10.09;85.39
64230;BME280;50547;49.498;0.092;2023-03-25T06:21:07;1006.67;;;10.21;85.19
64230;BME280;50547;49.498;0.092;2023-03-25T06:23:36;1006.61;;;10.16;85.58
64230;BME280;50547;49.498;0.092;2023-03-25T06:26:05;1006.65;;;10.20;85.38
64230;BME280;50547;49.498;0.092;2023-03-25T06:28:34;1006.65;;;10.22;85.44
64230;BME280;50547;49.498;0.092;2023-03-25T06:31:04;1006.53;;;10.13;85.91
64230;BME280;50547;49.498;0.092;2023-03-25T06:33:33;1006.59;;;10.12;85.85
64230;BME280;50547;49.498;0.092;2023-03-25T06:36:03;1006.74;;;10.13;85.63
64230;BME280;50547;49.498;0.092;2023-03-25T06:38:32;1006.69;;;10.14;85.64
64230;BME280;50547;49.498;0.092;2023-03-25T06:41:01;1006.78;;;10.15;85.72
64230;BME280;50547;49.498;0.092;2023-03-25T06:43:31;1006.78;;;10.27;85.25
64230;BME280;50547;49.498;0.092;2023-03-25T06:46:00;1006.88;;;10.23;85.47
64230;BME280;50547;49.498;0.092;2023-03-25T06:48:30;1006.84;;;10.23;85.45
64230;BME280;50547;49.498;0.092;2023-03-25T06:50:59;1006.82;;;10.34;84.84
64230;BME280;50547;49.498;0.092;2023-03-25T06:53:28;1006.86;;;10.36;84.89
64230;BME280;50547;49.498;0.092;2023-03-25T06:55:57;1006.94;;;10.51;84.29
64230;BME280;50547;49.498;0.092;2023-03-25T06:58:27;1007.06;;;10.38;84.82
64230;BME280;50547;49.498;0.092;2023-03-25T07:00:56;1007.04;;;10.45;84.61
64230;BME280;50547;49.498;0.092;2023-03-25T07:03:25;1007.08;;;10.46;84.88
64230;BME280;50547;49.498;0.092;2023-03-25T07:05:54;1007.08;;;10.43;85.08
64230;BME280;50547;49.498;0.092;2023-03-25T07:08:23;1007.06;;;10.47;84.96
64230;BME280;50547;49.498;0.092;2023-03-25T07:10:52;1007.04;;;10.57;84.41
64230;BME280;50547;49.498;0.092;2023-03-25T07:13:22;1007.08;;;10.54;84.79
64230;BME280;50547;49.498;0.092;2023-03-25T07:15:53;1007.08;;;10.58;84.54
64230;BME280;50547;49.498;0.092;2023-03-25T07:18:23;1007.20;;;10.63;84.20
64230;BME280;50547;49.498;0.092;2023-03-25T07:20:52;1007.21;;;10.64;84.05
64230;BME280;50547;49.498;0.092;2023-03-25T07:23:21;1007.20;;;10.75;83.71
64230;BME280;50547;49.498;0.092;2023-03-25T07:25:50;1007.16;;;10.72;83.96
64230;BME280;50547;49.498;0.092;2023-03-25T07:28:19;1007.12;;;10.69;84.16
64230;BME280;50547;49.498;0.092;2023-03-25T07:30:49;1007.21;;;10.78;84.10
64230;BME280;50547;49.498;0.092;2023-03-25T07:33:18;1007.23;;;10.79;84.30
64230;BME280;50547;49.498;0.092;2023-03-25T07:35:47;1007.35;;;10.80;84.23
64230;BME280;50547;49.498;0.092;2023-03-25T07:38:16;1007.27;;;10.78;84.40
64230;BME280;50547;49.498;0.092;2023-03-25T07:40:45;1007.33;;;10.85;84.13
64230;BME280;50547;49.498;0.092;2023-03-25T07:43:14;1007.45;;;10.86;84.12
64230;BME280;50547;49.498;0.092;2023-03-25T07:45:43;1007.25;;;10.91;83.94
64230;BME280;50547;49.498;0.092;2023-03-25T07:48:13;1007.37;;;10.90;84.26
64230;BME280;50547;49.498;0.092;2023-03-25T07:50:43;1007.51;;;10.81;84.92
64230;BME280;50547;49.498;0.092;2023-03-25T07:53:12;1007.39;;;10.75;85.34
64230;BME280;50547;49.498;0.092;2023-03-25T07:55:41;1007.39;;;10.76;85.23
64230;BME280;50547;49.498;0.092;2023-03-25T07:58:10;1007.55;;;10.57;85.74
64230;BME280;50547;49.498;0.092;2023-03-25T08:00:39;1007.61;;;10.61;85.49
64230;BME280;50547;49.498;0.092;2023-03-25T08:03:09;1007.49;;;10.61;85.30
64230;BME280;50547;49.498;0.092;2023-03-25T08:05:43;1007.63;;;10.64;85.30
64230;BME280;50547;49.498;0.092;2023-03-25T08:08:14;1007.57;;;10.53;85.78
64230;BME280;50547;49.498;0.092;2023-03-25T08:10:43;1007.51;;;10.68;85.06
64230;BME280;50547;49.498;0.092;2023-03-25T08:13:13;1007.41;;;10.72;84.92
64230;BME280;50547;49.498;0.092;2023-03-25T08:15:43;1007.37;;;10.77;84.52
64230;BME280;50547;49.498;0.092;2023-03-25T08:18:09;1007.49;;;10.79;85.07
64230;BME280;50547;49.498;0.092;2023-03-25T08:20:39;1007.61;;;10.67;85.42
64230;BME280;50547;49.498;0.092;2023-03-25T08:23:08;1007.67;;;10.85;84.64
64230;BME280;50547;49.498;0.092;2023-03-25T08:25:38;1007.68;;;11.16;83.55
64230;BME280;50547;49.498;0.092;2023-03-25T08:28:08;1007.59;;;11.15;83.32
64230;BME280;50547;49.498;0.092;2023-03-25T08:30:37;1007.59;;;11.43;81.41
64230;BME280;50547;49.498;0.092;2023-03-25T08:33:07;1007.88;;;11.62;80.73
64230;BME280;50547;49.498;0.092;2023-03-25T08:35:37;1007.61;;;11.65;80.65
64230;BME280;50547;49.498;0.092;2023-03-25T08:38:06;1007.68;;;11.70;80.59
64230;BME280;50547;49.498;0.092;2023-03-25T08:40:35;1007.59;;;11.73;80.86
64230;BME280;50547;49.498;0.092;2023-03-25T08:43:05;1007.68;;;11.91;80.15
64230;BME280;50547;49.498;0.092;2023-03-25T08:45:58;1007.84;;;12.03;79.59
64230;BME280;50547;49.498;0.092;2023-03-25T08:48:28;1007.82;;;11.99;79.82
64230;BME280;50547;49.498;0.092;2023-03-25T08:50:57;1007.84;;;11.93;80.26
64230;BME280;50547;49.498;0.092;2023-03-25T08:53:26;1007.88;;;12.08;79.83
64230;BME280;50547;49.498;0.092;2023-03-25T08:55:57;1008.10;;;12.02;80.07
64230;BME280;50547;49.498;0.092;2023-03-25T08:58:25;1007.80;;;12.16;79.61
64230;BME280;50547;49.498;0.092;2023-03-25T09:00:56;1008.12;;;12.16;79.82
64230;BME280;50547;49.498;0.092;2023-03-25T09:03:25;1008.16;;;12.11;80.05
64230;BME280;50547;49.498;0.092;2023-03-25T09:05:54;1008.10;;;12.24;79.51
64230;BME280;50547;49.498;0.092;2023-03-25T09:08:21;1008.30;;;12.37;78.41
64230;BME280;50547;49.498;0.092;2023-03-25T09:10:50;1008.14;;;12.44;78.28
64230;BME280;50547;49.498;0.092;2023-03-25T09:13:19;1008.38;;;12.49;78.51
64230;BME280;50547;49.498;0.092;2023-03-25T09:15:49;1008.44;;;12.21;79.56
64230;BME280;50547;49.498;0.092;2023-03-25T09:18:18;1008.44;;;12.41;78.74
64230;BME280;50547;49.498;0.092;2023-03-25T09:20:47;1008.40;;;12.45;78.12
64230;BME280;50547;49.498;0.092;2023-03-25T09:23:13;1008.52;;;12.18;79.43
64230;BME280;50547;49.498;0.092;2023-03-25T09:25:43;1008.55;;;12.12;79.93
64230;BME280;50547;49.498;0.092;2023-03-25T09:28:12;1008.34;;;12.00;80.59
64230;BME280;50547;49.498;0.092;2023-03-25T09:30:41;1008.59;;;11.92;80.65
64230;BME280;50547;49.498;0.092;2023-03-25T09:33:10;1008.63;;;11.89;80.87
64230;BME280;50547;49.498;0.092;2023-03-25T09:35:40;1008.63;;;11.83;81.16
64230;BME280;50547;49.498;0.092;2023-03-25T09:38:09;1008.73;;;11.85;80.87
64230;BME280;50547;49.498;0.092;2023-03-25T09:40:40;1008.63;;;11.80;81.47
64230;BME280;50547;49.498;0.092;2023-03-25T09:43:23;1008.67;;;11.78;81.68
64230;BME280;50547;49.498;0.092;2023-03-25T09:45:58;1008.69;;;11.71;81.99
64230;BME280;50547;49.498;0.092;2023-03-25T09:48:31;1008.50;;;11.80;81.44
64230;BME280;50547;49.498;0.092;2023-03-25T09:51:05;1008.57;;;11.79;81.78
64230;BME280;50547;49.498;0.092;2023-03-25T09:53:41;1008.57;;;11.77;81.79
64230;BME280;50547;49.498;0.092;2023-03-25T09:56:15;1008.75;;;11.73;81.85
64230;BME280;50547;49.498;0.092;2023-03-25T09:58:46;1008.85;;;11.43;84.46
64230;BME280;50547;49.498;0.092;2023-03-25T10:01:22;1008.85;;;11.03;87.50
64230;BME280;50547;49.498;0.092;2023-03-25T10:04:02;1008.85;;;10.89;88.05
64230;BME280;50547;49.498;0.092;2023-03-25T10:06:41;1008.75;;;10.88;87.78
64230;BME280;50547;49.498;0.092;2023-03-25T10:09:22;1008.65;;;10.86;87.49
64230;BME280;50547;49.498;0.092;2023-03-25T10:12:01;1008.73;;;10.85;86.81
64230;BME280;50547;49.498;0.092;2023-03-25T10:14:39;1009.00;;;10.84;86.86
64230;BME280;50547;49.498;0.092;2023-03-25T10:17:27;1008.87;;;10.92;87.10
64230;BME280;50547;49.498;0.092;2023-03-25T10:20:02;1008.93;;;10.68;88.62
64230;BME280;50547;49.498;0.092;2023-03-25T10:22:40;1008.93;;;9.61;91.41
64230;BME280;50547;49.498;0.092;2023-03-25T10:25:21;1009.04;;;9.71;88.59
64230;BME280;50547;49.498;0.092;2023-03-25T10:27:53;1009.16;;;9.85;88.77
64230;BME280;50547;49.498;0.092;2023-03-25T10:30:26;1009.18;;;10.10;88.66
64230;BME280;50547;49.498;0.092;2023-03-25T10:33:00;1009.08;;;10.29;88.30
64230;BME280;50547;49.498;0.092;2023-03-25T10:35:34;1009.22;;;10.55;87.68
64230;BME280;50547;49.498;0.092;2023-03-25T10:38:06;1009.20;;;10.69;87.24
64230;BME280;50547;49.498;0.092;2023-03-25T10:40:41;1009.12;;;10.88;87.07
64230;BME280;50547;49.498;0.092;2023-03-25T10:43:16;1009.24;;;11.03;86.91
64230;BME280;50547;49.498;0.092;2023-03-25T10:45:51;1009.28;;;11.26;86.57
64230;BME280;50547;49.498;0.092;2023-03-25T10:48:25;1009.26;;;11.33;86.84
64230;BME280;50547;49.498;0.092;2023-03-25T10:51:02;1009.28;;;11.38;86.93
64230;BME280;50547;49.498;0.092;2023-03-25T10:53:32;1009.26;;;11.14;87.87
64230;BME280;50547;49.498;0.092;2023-03-25T10:56:03;1009.46;;;11.15;87.68
64230;BME280;50547;49.498;0.092;2023-03-25T10:58:36;1009.49;;;10.93;88.75
64230;BME280;50547;49.498;0.092;2023-03-25T11:01:10;1009.44;;;10.79;89.50
64230;BME280;50547;49.498;0.092;2023-03-25T11:03:41;1009.49;;;10.88;88.77
64230;BME280;50547;49.498;0.092;2023-03-25T11:06:20;1009.47;;;11.01;87.91
64230;BME280;50547;49.498;0.092;2023-03-25T11:09:12;1009.55;;;11.10;87.69
64230;BME280;50547;49.498;0.092;2023-03-25T11:11:41;1009.53;;;11.27;87.25
64230;BME280;50547;49.498;0.092;2023-03-25T11:14:11;1009.44;;;11.39;86.98
64230;BME280;50547;49.498;0.092;2023-03-25T11:16:42;1009.53;;;11.53;86.50
64230;BME280;50547;49.498;0.092;2023-03-25T11:19:17;1009.42;;;11.56;86.43
64230;BME280;50547;49.498;0.092;2023-03-25T11:21:46;1009.46;;;11.74;85.57
64230;BME280;50547;49.498;0.092;2023-03-25T11:24:17;1009.30;;;11.46;86.46
64230;BME280;50547;49.498;0.092;2023-03-25T11:26:48;1009.46;;;11.58;85.26
64230;BME280;50547;49.498;0.092;2023-03-25T11:29:19;1009.49;;;11.68;84.72
64230;BME280;50547;49.498;0.092;2023-03-25T11:31:57;1009.46;;;11.68;84.65
64230;BME280;50547;49.498;0.092;2023-03-25T11:34:34;1009.75;;;11.83;84.37
64230;BME280;50547;49.498;0.092;2023-03-25T11:37:12;1009.61;;;11.84;84.44
64230;BME280;50547;49.498;0.092;2023-03-25T11:39:48;1009.59;;;11.89;84.55
64230;BME280;50547;49.498;0.092;2023-03-25T11:42:27;1009.65;;;12.03;84.16
64230;BME280;50547;49.498;0.092;2023-03-25T11:44:58;1009.69;;;12.15;83.95
64230;BME280;50547;49.498;0.092;2023-03-25T11:47:30;1009.65;;;12.27;83.50
64230;BME280;50547;49.498;0.092;2023-03-25T11:50:01;1009.79;;;12.13;84.34
64230;BME280;50547;49.498;0.092;2023-03-25T11:52:36;1009.87;;;12.49;83.03
64230;BME280;50547;49.498;0.092;2023-03-25T11:55:21;1009.87;;;12.52;82.88
64230;BME280;50547;49.498;0.092;2023-03-25T11:57:49;1009.73;;;12.59;83.30
64230;BME280;50547;49.498;0.092;2023-03-25T12:00:26;1009.79;;;12.58;83.23
64230;BME280;50547;49.498;0.092;2023-03-25T12:03:00;1009.87;;;12.60;83.18
64230;BME280;50547;49.498;0.092;2023-03-25T12:05:30;1009.77;;;12.66;82.57
64230;BME280;50547;49.498;0.092;2023-03-25T12:08:03;1009.75;;;12.70;82.18
64230;BME280;50547;49.498;0.092;2023-03-25T12:10:41;1009.63;;;12.76;81.85
64230;BME280;50547;49.498;0.092;2023-03-25T12:13:24;1009.63;;;12.81;81.51
64230;BME280;50547;49.498;0.092;2023-03-25T12:16:06;1009.71;;;12.85;80.96
64230;BME280;50547;49.498;0.092;2023-03-25T12:18:53;1009.67;;;13.08;80.43
64230;BME280;50547;49.498;0.092;2023-03-25T12:21:36;1009.69;;;13.23;79.81
64230;BME280;50547;49.498;0.092;2023-03-25T12:24:15;1009.67;;;13.22;79.65
64230;BME280;50547;49.498;0.092;2023-03-25T12:26:57;1009.63;;;13.17;79.40
64230;BME280;50547;49.498;0.092;2023-03-25T12:29:36;1009.51;;;13.22;78.86
64230;BME280;50547;49.498;0.092;2023-03-25T12:32:16;1009.71;;;13.15;79.07
64230;BME280;50547;49.498;0.092;2023-03-25T12:34:58;1009.65;;;13.23;77.87
64230;BME280;50547;49.498;0.092;2023-03-25T12:37:36;1009.61;;;12.96;78.67
64230;BME280;50547;49.498;0.092;2023-03-25T12:40:30;1009.69;;;12.80;78.94
64230;BME280;50547;49.498;0.092;2023-03-25T12:43:04;1009.73;;;13.04;77.75
64230;BME280;50547;49.498;0.092;2023-03-25T12:45:47;1009.73;;;13.16;76.55
64230;BME280;50547;49.498;0.092;2023-03-25T12:48:30;1009.26;;;13.32;76.06
64230;BME280;50547;49.498;0.092;2023-03-25T12:51:11;1009.55;;;13.36;75.29
64230;BME280;50547;49.498;0.092;2023-03-25T12:53:53;1009.75;;;13.50;74.69
64230;BME280;50547;49.498;0.092;2023-03-25T12:56:36;1009.61;;;13.58;74.45
64230;BME280;50547;49.498;0.092;2023-03-25T12:59:20;1009.47;;;13.66;74.11
64230;BME280;50547;49.498;0.092;2023-03-25T13:02:03;1009.67;;;13.67;74.34
64230;BME280;50547;49.498;0.092;2023-03-25T13:04:45;1009.51;;;13.81;73.82
64230;BME280;50547;49.498;0.092;2023-03-25T13:07:20;1009.73;;;13.70;74.12
64230;BME280;50547;49.498;0.092;2023-03-25T13:09:58;1009.67;;;13.70;74.02
64230;BME280;50547;49.498;0.092;2023-03-25T13:12:31;1009.67;;;13.84;73.29
64230;BME280;50547;49.498;0.092;2023-03-25T13:15:10;1009.57;;;13.91;73.02
64230;BME280;50547;49.498;0.092;2023-03-25T13:17:46;1009.59;;;13.91;72.93
64230;BME280;50547;49.498;0.092;2023-03-25T13:20:18;1009.42;;;13.93;72.74
64230;BME280;50547;49.498;0.092;2023-03-25T13:22:51;1009.42;;;13.94;73.47
64230;BME280;50547;49.498;0.092;2023-03-25T13:25:25;1009.55;;;14.25;72.36
64230;BME280;50547;49.498;0.092;2023-03-25T13:30:31;1009.69;;;14.35;71.57
64230;BME280;50547;49.498;0.092;2023-03-25T13:33:06;1009.53;;;14.49;71.06
64230;BME280;50547;49.498;0.092;2023-03-25T13:35:43;1009.55;;;14.58;70.80
64230;BME280;50547;49.498;0.092;2023-03-25T13:38:18;1009.69;;;14.49;71.10
64230;BME280;50547;49.498;0.092;2023-03-25T13:41:05;1009.57;;;14.59;70.55
64230;BME280;50547;49.498;0.092;2023-03-25T13:43:42;1009.53;;;14.44;70.96
64230;BME280;50547;49.498;0.092;2023-03-25T13:46:17;1009.63;;;14.49;70.58
64230;BME280;50547;49.498;0.092;2023-03-25T13:48:52;1009.47;;;14.79;69.52